createdAt,value
2023-02-07T00:01:41.389Z,9.70
2023-02-07T00:04:09.793Z,9.50
2023-02-07T00:06:38.564Z,9.50
2023-02-07T00:09:09.342Z,9.40
2023-02-07T00:11:41.432Z,9.30
2023-02-07T00:14:11.915Z,9.20
2023-02-07T00:16:41.652Z,9.40
2023-02-07T00:19:10.436Z,9.50
2023-02-07T00:21:39.071Z,9.50
2023-02-07T00:24:08.389Z,9.40
2023-02-07T00:26:36.965Z,9.30
2023-02-07T00:29:05.972Z,9.30
2023-02-07T00:31:36.290Z,9.20
2023-02-07T00:34:07.662Z,9.10
2023-02-07T00:36:37.471Z,9.30
2023-02-07T00:39:09.581Z,9.30
2023-02-07T00:41:38.351Z,9.20
2023-02-07T00:44:07.256Z,9.30
2023-02-07T00:46:36.414Z,9.10
2023-02-07T00:49:05.974Z,9.30
2023-02-07T00:51:35.122Z,9.30
2023-02-07T00:54:03.680Z,9.10
2023-02-07T00:56:33.444Z,9.10
2023-02-07T00:59:02.182Z,9.10
2023-02-07T01:01:30.640Z,9.00
2023-02-07T01:03:59.667Z,9.00
2023-02-07T01:06:29.152Z,8.90
2023-02-07T01:08:59.952Z,9.30
2023-02-07T01:11:29.551Z,8.70
2023-02-07T01:14:01.723Z,8.80
2023-02-07T01:16:34.179Z,8.90
2023-02-07T01:19:09.044Z,8.70
2023-02-07T01:21:38.366Z,8.70
2023-02-07T01:24:07.559Z,8.60
2023-02-07T01:26:37.343Z,8.70
2023-02-07T01:29:06.088Z,8.70
2023-02-07T01:31:34.860Z,8.70
2023-02-07T01:34:05.512Z,8.70
2023-02-07T01:36:34.209Z,8.70
2023-02-07T01:39:04.659Z,8.70
2023-02-07T01:41:33.129Z,8.70
2023-02-07T01:44:29.225Z,8.60
2023-02-07T01:46:58.393Z,8.60
2023-02-07T01:49:31.979Z,8.50
2023-02-07T01:52:21.902Z,8.80
2023-02-07T01:54:54.864Z,8.50
2023-02-07T01:57:25.093Z,8.30
2023-02-07T01:59:56.639Z,8.40
2023-02-07T02:02:28.868Z,8.40
2023-02-07T02:04:58.738Z,8.40
2023-02-07T02:07:29.446Z,8.60
2023-02-07T02:09:57.859Z,8.60
2023-02-07T02:12:54.480Z,8.50
2023-02-07T02:15:44.198Z,8.50
2023-02-07T02:18:32.717Z,8.40
2023-02-07T02:21:28.282Z,8.50
2023-02-07T02:24:42.051Z,8.60
2023-02-07T02:27:50.387Z,8.60
2023-02-07T02:30:37.587Z,8.40
2023-02-07T02:33:27.213Z,8.40
2023-02-07T02:36:24.876Z,8.50
2023-02-07T02:38:53.268Z,8.40
2023-02-07T02:41:30.026Z,8.40
2023-02-07T02:44:19.536Z,8.30
2023-02-07T02:46:49.997Z,8.40
2023-02-07T02:49:20.093Z,8.50
2023-02-07T02:51:54.000Z,8.40
2023-02-07T02:54:34.251Z,8.30
2023-02-07T02:57:33.319Z,8.30
2023-02-07T03:00:31.172Z,8.30
2023-02-07T03:03:19.043Z,8.20
2023-02-07T03:06:05.794Z,8.20
2023-02-07T03:08:48.321Z,8.30
2023-02-07T03:11:20.955Z,8.30
2023-02-07T03:14:09.356Z,8.20
2023-02-07T03:17:03.638Z,8.30
2023-02-07T03:20:19.261Z,8.20
2023-02-07T03:22:49.413Z,8.20
2023-02-07T03:25:20.121Z,8.50
2023-02-07T03:27:50.072Z,8.30
2023-02-07T03:30:21.650Z,8.30
2023-02-07T03:32:57.471Z,8.30
2023-02-07T03:35:37.267Z,8.30
2023-02-07T03:38:07.800Z,8.40
2023-02-07T03:40:44.632Z,8.30
2023-02-07T03:43:19.524Z,8.30
2023-02-07T03:45:48.074Z,8.30
2023-02-07T03:48:16.494Z,8.50
2023-02-07T03:50:44.990Z,8.40
2023-02-07T03:53:13.385Z,8.40
2023-02-07T03:55:41.994Z,8.50
2023-02-07T03:58:10.531Z,8.60
2023-02-07T04:00:39.229Z,8.60
2023-02-07T04:03:07.749Z,8.50
2023-02-07T04:05:36.787Z,8.80
2023-02-07T04:08:05.612Z,8.40
2023-02-07T04:10:33.999Z,8.70
2023-02-07T04:13:02.385Z,8.50
2023-02-07T04:15:31.048Z,8.50
2023-02-07T04:17:59.459Z,8.30
2023-02-07T04:20:28.109Z,8.50
2023-02-07T04:22:56.532Z,8.60
2023-02-07T04:25:25.032Z,8.50
2023-02-07T04:27:53.503Z,8.80
2023-02-07T04:30:22.181Z,8.50
2023-02-07T04:32:50.588Z,8.40
2023-02-07T04:35:19.099Z,8.30
2023-02-07T04:37:47.559Z,8.40
2023-02-07T04:40:15.986Z,8.50
2023-02-07T04:42:44.364Z,8.50
2023-02-07T04:45:12.889Z,8.50
2023-02-07T04:47:41.279Z,8.80
2023-02-07T04:50:09.967Z,8.50
2023-02-07T04:52:38.844Z,8.60
2023-02-07T04:55:07.680Z,8.50
2023-02-07T04:57:36.132Z,8.60
2023-02-07T05:00:05.540Z,8.80
2023-02-07T05:02:33.916Z,8.50
2023-02-07T05:05:02.302Z,8.60
2023-02-07T05:07:30.782Z,8.70
2023-02-07T05:09:59.173Z,8.70
2023-02-07T05:12:27.616Z,8.70
2023-02-07T05:14:57.417Z,8.70
2023-02-07T05:17:27.040Z,8.70
2023-02-07T05:19:55.512Z,8.90
2023-02-07T05:22:23.920Z,8.80
2023-02-07T05:24:54.672Z,8.80
2023-02-07T05:27:23.222Z,8.80
2023-02-07T05:29:51.628Z,8.80
2023-02-07T05:32:39.408Z,8.90
2023-02-07T05:35:08.072Z,8.80
2023-02-07T05:37:36.486Z,8.80
2023-02-07T05:40:05.815Z,8.90
2023-02-07T05:42:34.253Z,8.90
2023-02-07T05:45:02.694Z,8.80
2023-02-07T05:47:31.207Z,8.80
2023-02-07T05:49:59.595Z,8.90
2023-02-07T05:52:27.996Z,8.80
2023-02-07T05:54:56.561Z,8.80
2023-02-07T05:57:25.005Z,8.90
2023-02-07T05:59:53.408Z,8.80
2023-02-07T06:02:21.900Z,8.80
2023-02-07T06:04:50.302Z,8.70
2023-02-07T06:07:18.802Z,8.70
2023-02-07T06:09:47.220Z,8.70
2023-02-07T06:12:15.635Z,8.60
2023-02-07T06:14:44.016Z,8.60
2023-02-07T06:17:12.439Z,8.70
2023-02-07T06:19:41.117Z,8.80
2023-02-07T06:22:09.513Z,8.80
2023-02-07T06:24:37.960Z,8.70
2023-02-07T06:27:06.390Z,8.80
2023-02-07T06:29:34.921Z,8.90
2023-02-07T06:32:03.425Z,8.90
2023-02-07T06:34:31.854Z,8.80
2023-02-07T06:37:00.288Z,8.80
2023-02-07T06:39:28.823Z,8.70
2023-02-07T06:41:57.232Z,8.70
2023-02-07T06:44:25.619Z,8.80
2023-02-07T06:46:54.249Z,8.70
2023-02-07T06:49:22.665Z,8.90
2023-02-07T06:51:51.036Z,8.60
2023-02-07T06:54:19.889Z,8.60
2023-02-07T06:56:48.348Z,8.90
2023-02-07T06:59:16.815Z,8.70
2023-02-07T07:01:46.312Z,8.30
2023-02-07T07:04:16.440Z,8.60
2023-02-07T07:06:44.911Z,8.60
2023-02-07T07:09:13.525Z,8.60
2023-02-07T07:11:43.929Z,8.70
2023-02-07T07:14:13.189Z,8.60
2023-02-07T07:16:41.908Z,8.60
2023-02-07T07:19:10.763Z,8.60
2023-02-07T07:21:39.244Z,8.30
2023-02-07T07:24:08.087Z,8.60
2023-02-07T07:26:48.301Z,8.60
2023-02-07T07:29:18.243Z,8.70
2023-02-07T07:31:47.351Z,8.60
2023-02-07T07:34:16.265Z,8.50
2023-02-07T07:36:44.803Z,8.40
2023-02-07T07:39:14.092Z,8.60
2023-02-07T07:41:42.510Z,8.50
2023-02-07T07:44:10.871Z,8.60
2023-02-07T07:46:39.423Z,8.30
2023-02-07T07:49:07.851Z,8.70
2023-02-07T07:51:36.852Z,8.30
2023-02-07T07:54:05.632Z,8.40
2023-02-07T07:56:36.202Z,8.60
2023-02-07T07:59:05.969Z,8.60
2023-02-07T08:01:37.424Z,8.60
2023-02-07T08:04:06.048Z,8.60
2023-02-07T08:06:34.505Z,8.70
2023-02-07T08:09:02.998Z,8.60
2023-02-07T08:11:31.416Z,8.60
2023-02-07T08:13:59.818Z,8.50
2023-02-07T08:16:28.370Z,8.60
2023-02-07T08:18:56.835Z,8.60
2023-02-07T08:21:27.509Z,8.80
2023-02-07T08:23:56.236Z,8.60
2023-02-07T08:26:24.594Z,8.60
2023-02-07T08:28:53.237Z,8.70
2023-02-07T08:31:21.792Z,8.60
2023-02-07T08:33:50.224Z,8.40
2023-02-07T08:36:18.686Z,8.40
2023-02-07T08:38:47.088Z,8.40
2023-02-07T08:41:15.475Z,8.40
2023-02-07T08:43:43.882Z,8.30
2023-02-07T08:46:12.354Z,8.40
2023-02-07T08:48:40.757Z,8.50
2023-02-07T08:51:10.869Z,8.50
2023-02-07T08:53:39.307Z,8.50
2023-02-07T08:56:09.627Z,8.50
2023-02-07T08:58:38.118Z,8.40
2023-02-07T09:01:08.623Z,8.30
2023-02-07T09:03:37.014Z,8.40
2023-02-07T09:06:05.606Z,8.40
2023-02-07T09:08:34.330Z,8.40
2023-02-07T09:11:08.956Z,8.40
2023-02-07T09:13:37.893Z,8.30
2023-02-07T09:16:06.560Z,8.30
2023-02-07T09:18:35.683Z,8.40
2023-02-07T09:21:05.317Z,8.30
2023-02-07T09:23:36.479Z,8.40
2023-02-07T09:26:06.922Z,8.80
2023-02-07T09:28:35.800Z,8.50
2023-02-07T09:31:10.305Z,8.40
2023-02-07T09:33:38.947Z,8.40
2023-02-07T09:36:07.972Z,8.40
2023-02-07T09:38:36.518Z,8.40
2023-02-07T09:41:04.941Z,8.30
2023-02-07T09:44:03.003Z,8.40
2023-02-07T09:46:44.855Z,8.20
2023-02-07T09:49:13.699Z,8.30
2023-02-07T09:51:43.343Z,8.40
2023-02-07T09:54:40.695Z,8.40
2023-02-07T09:57:38.774Z,8.50
2023-02-07T10:00:21.276Z,8.50
2023-02-07T10:03:08.132Z,8.30
2023-02-07T10:05:53.032Z,8.30
2023-02-07T10:08:23.323Z,8.30
2023-02-07T10:11:38.137Z,8.40
2023-02-07T10:14:18.368Z,8.50
2023-02-07T10:16:52.551Z,8.40
2023-02-07T10:19:31.667Z,8.40
2023-02-07T10:22:17.436Z,8.30
2023-02-07T10:25:22.805Z,8.30
2023-02-07T10:28:15.777Z,8.30
2023-02-07T10:30:58.072Z,8.50
2023-02-07T10:33:33.653Z,8.30
2023-02-07T10:36:20.060Z,8.30
2023-02-07T10:39:31.348Z,8.30
2023-02-07T10:42:00.163Z,8.40
2023-02-07T10:44:30.348Z,8.20
2023-02-07T10:47:08.495Z,8.30
2023-02-07T10:49:38.832Z,8.30
2023-02-07T10:52:31.212Z,8.30
2023-02-07T10:55:02.121Z,8.30
2023-02-07T10:57:31.549Z,8.50
2023-02-07T11:00:22.886Z,8.30
2023-02-07T11:02:57.081Z,8.30
2023-02-07T11:05:25.423Z,8.20
2023-02-07T11:08:03.551Z,8.20
2023-02-07T11:10:38.466Z,8.10
2023-02-07T11:13:16.507Z,8.30
2023-02-07T11:16:02.313Z,8.20
2023-02-07T11:19:03.661Z,8.20
2023-02-07T11:21:35.114Z,8.20
2023-02-07T11:24:19.950Z,8.20
2023-02-07T11:27:05.809Z,8.10
2023-02-07T11:29:47.322Z,7.90
2023-02-07T11:32:17.914Z,7.90
2023-02-07T11:34:50.686Z,7.80
2023-02-07T11:37:24.798Z,7.80
2023-02-07T11:39:56.274Z,7.90
2023-02-07T11:42:34.871Z,8.00
2023-02-07T11:45:14.247Z,8.00
2023-02-07T11:47:45.782Z,7.90
2023-02-07T11:50:22.464Z,8.00
2023-02-07T11:52:57.717Z,8.10
2023-02-07T11:55:40.712Z,8.00
2023-02-07T11:58:40.120Z,7.80
2023-02-07T12:01:09.952Z,7.90
2023-02-07T12:04:01.510Z,8.00
2023-02-07T12:06:59.998Z,7.90
2023-02-07T12:09:40.721Z,8.20
2023-02-07T12:12:39.738Z,8.00
2023-02-07T12:15:17.012Z,8.00
2023-02-07T12:18:12.524Z,8.10
2023-02-07T12:20:49.953Z,8.10
2023-02-07T12:23:42.784Z,7.90
2023-02-07T12:26:26.906Z,7.90
2023-02-07T12:29:20.617Z,7.90
2023-02-07T12:31:58.357Z,8.00
2023-02-07T12:34:36.342Z,8.00
2023-02-07T12:37:15.928Z,8.10
2023-02-07T12:39:55.943Z,8.10
2023-02-07T12:43:02.759Z,8.10
2023-02-07T12:46:01.885Z,8.20
2023-02-07T12:48:55.088Z,8.20
2023-02-07T12:51:34.249Z,8.00
2023-02-07T12:54:21.118Z,8.10
2023-02-07T12:57:02.195Z,8.00
2023-02-07T12:59:53.140Z,8.00
2023-02-07T13:02:44.887Z,8.10
2023-02-07T13:05:31.774Z,8.20
2023-02-07T13:08:17.881Z,8.30
2023-02-07T13:11:16.937Z,8.20
2023-02-07T13:14:07.260Z,8.20
2023-02-07T13:16:56.948Z,8.10
2023-02-07T13:19:47.814Z,8.20
2023-02-07T13:22:31.806Z,8.20
2023-02-07T13:25:02.574Z,8.10
2023-02-07T13:27:31.890Z,8.20
2023-02-07T13:30:02.065Z,8.30
2023-02-07T13:32:30.616Z,8.20
2023-02-07T13:35:04.003Z,8.30
2023-02-07T13:37:52.191Z,8.30
2023-02-07T13:40:35.622Z,8.30
2023-02-07T13:43:25.933Z,8.30
2023-02-07T13:46:35.059Z,8.40
2023-02-07T13:49:18.399Z,8.30
2023-02-07T13:52:11.667Z,8.70
2023-02-07T13:55:01.666Z,8.40
2023-02-07T13:57:54.455Z,8.40
2023-02-07T14:00:28.828Z,8.40
2023-02-07T14:03:04.308Z,8.40
2023-02-07T14:05:35.868Z,8.30
2023-02-07T14:08:18.306Z,8.40
2023-02-07T14:10:51.384Z,8.40
2023-02-07T14:13:34.824Z,8.40
2023-02-07T14:16:13.573Z,8.30
2023-02-07T14:18:47.880Z,8.30
2023-02-07T14:21:22.471Z,8.40
2023-02-07T14:24:12.339Z,8.40
2023-02-07T14:26:40.733Z,8.50
2023-02-07T14:29:24.270Z,8.40
2023-02-07T14:32:02.370Z,8.60
2023-02-07T14:35:01.053Z,8.30
2023-02-07T14:38:15.272Z,8.50
2023-02-07T14:40:46.358Z,8.20
2023-02-07T14:43:14.711Z,8.50
2023-02-07T14:45:52.659Z,8.50
2023-02-07T14:49:10.702Z,8.40
2023-02-07T14:51:44.864Z,8.70
2023-02-07T14:54:39.118Z,8.40
2023-02-07T14:57:24.549Z,8.50
2023-02-07T15:00:05.852Z,8.50
2023-02-07T15:02:37.426Z,8.60
2023-02-07T15:05:14.982Z,8.50
2023-02-07T15:07:44.756Z,8.40
2023-02-07T15:10:28.912Z,8.50
2023-02-07T15:12:57.922Z,8.50
2023-02-07T15:15:29.069Z,8.30
2023-02-07T15:18:00.553Z,8.60
2023-02-07T15:20:34.058Z,8.60
2023-02-07T15:23:05.347Z,8.70
2023-02-07T15:25:34.333Z,8.60
2023-02-07T15:28:25.376Z,8.60
2023-02-07T15:31:03.643Z,8.60
2023-02-07T15:33:41.621Z,8.60
2023-02-07T15:36:37.926Z,8.60
2023-02-07T15:39:08.793Z,8.70
2023-02-07T15:41:37.232Z,8.60
2023-02-07T15:44:08.595Z,8.70
2023-02-07T15:46:58.415Z,8.70
2023-02-07T15:49:31.782Z,8.70
2023-02-07T15:52:25.204Z,8.80
2023-02-07T15:54:55.903Z,8.80
2023-02-07T15:57:34.595Z,8.90
2023-02-07T16:00:10.570Z,8.90
2023-02-07T16:02:43.256Z,8.80
2023-02-07T16:05:12.405Z,8.70
2023-02-07T16:07:41.123Z,8.90
2023-02-07T16:10:26.453Z,8.80
2023-02-07T16:13:20.648Z,8.80
2023-02-07T16:15:58.302Z,8.70
2023-02-07T16:18:39.277Z,8.90
2023-02-07T16:21:29.388Z,8.70
2023-02-07T16:24:10.840Z,8.90
2023-02-07T16:26:39.375Z,8.80
2023-02-07T16:29:08.482Z,8.80
2023-02-07T16:31:37.254Z,8.60
2023-02-07T16:34:05.700Z,8.60
2023-02-07T16:36:34.066Z,8.60
2023-02-07T16:39:02.475Z,8.50
2023-02-07T16:41:33.581Z,8.50
2023-02-07T16:44:08.439Z,8.40
2023-02-07T16:46:37.116Z,8.60
2023-02-07T16:49:18.207Z,8.40
2023-02-07T16:51:46.746Z,8.20
2023-02-07T16:54:15.577Z,8.20
2023-02-07T16:56:48.981Z,8.20
2023-02-07T16:59:20.021Z,8.20
2023-02-07T17:01:49.653Z,8.20
2023-02-07T17:04:18.540Z,8.30
2023-02-07T17:06:46.921Z,8.20
2023-02-07T17:09:25.183Z,8.00
2023-02-07T17:11:54.909Z,8.30
2023-02-07T17:14:23.594Z,8.10
2023-02-07T17:16:52.705Z,7.90
2023-02-07T17:19:27.983Z,7.90
2023-02-07T17:21:57.485Z,8.00
2023-02-07T17:24:25.883Z,8.10
2023-02-07T17:26:56.266Z,7.90
2023-02-07T17:29:24.968Z,7.80
2023-02-07T17:31:53.487Z,7.90
2023-02-07T17:34:21.919Z,7.80
2023-02-07T17:36:51.724Z,7.80
2023-02-07T17:39:21.097Z,7.80
2023-02-07T17:41:49.553Z,7.90
2023-02-07T17:44:22.022Z,8.00
2023-02-07T17:46:50.580Z,8.00
2023-02-07T17:49:19.510Z,8.00
2023-02-07T17:51:48.027Z,8.00
2023-02-07T17:54:16.388Z,7.90
2023-02-07T17:56:44.778Z,7.90
2023-02-07T17:59:25.520Z,8.00
2023-02-07T18:01:54.170Z,8.00
2023-02-07T18:04:22.795Z,8.20
2023-02-07T18:06:51.284Z,8.20
2023-02-07T18:09:21.085Z,8.20
2023-02-07T18:11:50.223Z,8.20
2023-02-07T18:14:18.833Z,8.10
2023-02-07T18:16:47.287Z,8.20
2023-02-07T18:19:19.705Z,8.10
2023-02-07T18:21:48.193Z,8.20
2023-02-07T18:24:16.938Z,8.30
2023-02-07T18:26:47.174Z,8.30
2023-02-07T18:29:15.679Z,8.30
2023-02-07T18:31:44.477Z,8.30
2023-02-07T18:34:13.071Z,8.40
2023-02-07T18:36:41.449Z,8.30
2023-02-07T18:39:13.531Z,8.30
2023-02-07T18:41:42.060Z,8.20
2023-02-07T18:44:10.556Z,8.40
2023-02-07T18:46:40.918Z,8.40
2023-02-07T18:49:11.589Z,8.40
2023-02-07T18:51:40.500Z,8.50
2023-02-07T18:54:09.398Z,8.50
2023-02-07T18:56:38.203Z,8.60
2023-02-07T18:59:06.653Z,8.50
2023-02-07T19:01:36.074Z,8.50
2023-02-07T19:04:04.688Z,8.70
2023-02-07T19:06:35.014Z,8.60
2023-02-07T19:09:03.515Z,8.60
2023-02-07T19:11:31.931Z,8.60
2023-02-07T19:14:00.299Z,8.50
2023-02-07T19:16:29.238Z,8.60
2023-02-07T19:18:59.867Z,8.70
2023-02-07T19:21:28.317Z,8.50
2023-02-07T19:23:58.168Z,8.60
2023-02-07T19:26:27.131Z,8.40
2023-02-07T19:28:55.629Z,8.80
2023-02-07T19:31:25.515Z,8.70
2023-02-07T19:33:55.046Z,8.70
2023-02-07T19:36:24.456Z,8.50
2023-02-07T19:38:57.065Z,8.50
2023-02-07T19:41:27.627Z,8.80
2023-02-07T19:43:56.371Z,8.70
2023-02-07T19:46:25.353Z,8.90
2023-02-07T19:48:55.488Z,8.60
2023-02-07T19:51:28.215Z,8.70
2023-02-07T19:53:57.569Z,8.60
2023-02-07T19:56:28.900Z,8.70
2023-02-07T19:58:57.909Z,8.80
2023-02-07T20:01:27.167Z,8.80
2023-02-07T20:03:56.531Z,8.80
2023-02-07T20:06:30.003Z,8.90
2023-02-07T20:08:59.738Z,8.90
2023-02-07T20:11:28.591Z,9.20
2023-02-07T20:14:03.906Z,9.00
2023-02-07T20:16:35.079Z,8.90
2023-02-07T20:19:06.561Z,8.90
2023-02-07T20:21:36.885Z,9.00
2023-02-07T20:24:05.916Z,8.90
2023-02-07T20:26:40.108Z,9.00
2023-02-07T20:29:11.694Z,9.00
2023-02-07T20:31:40.948Z,9.00
2023-02-07T20:34:09.591Z,9.00
2023-02-07T20:36:42.574Z,9.10
2023-02-07T20:39:21.277Z,9.10
2023-02-07T20:41:50.932Z,9.30
2023-02-07T20:44:27.310Z,9.30
2023-02-07T20:46:57.710Z,9.20
2023-02-07T20:49:31.557Z,9.30
2023-02-07T20:52:00.949Z,9.40
2023-02-07T20:54:31.102Z,9.30
2023-02-07T20:56:59.969Z,9.30
2023-02-07T20:59:31.411Z,9.20
2023-02-07T21:02:00.100Z,9.30
2023-02-07T21:04:29.765Z,9.30
2023-02-07T21:06:58.196Z,9.30
2023-02-07T21:09:26.819Z,9.30
2023-02-07T21:11:55.708Z,9.40
2023-02-07T21:14:26.464Z,9.40
2023-02-07T21:16:56.621Z,9.30
2023-02-07T21:19:26.322Z,9.20
2023-02-07T21:21:58.472Z,9.30
2023-02-07T21:24:27.438Z,9.30
2023-02-07T21:26:56.958Z,9.20
2023-02-07T21:29:26.170Z,9.40
2023-02-07T21:31:54.816Z,9.20
2023-02-07T21:34:23.587Z,9.30
2023-02-07T21:36:53.248Z,9.40
2023-02-07T21:39:21.804Z,9.60
2023-02-07T21:41:50.176Z,9.60
2023-02-07T21:44:21.821Z,10.00
2023-02-07T21:46:50.672Z,10.10
2023-02-07T21:49:21.283Z,10.20
2023-02-07T21:51:51.298Z,10.30
2023-02-07T21:54:19.825Z,10.30
2023-02-07T21:56:51.754Z,10.30
2023-02-07T21:59:21.937Z,10.40
2023-02-07T22:01:50.998Z,10.40
2023-02-07T22:04:20.099Z,10.30
2023-02-07T22:06:50.018Z,10.20
2023-02-07T22:09:20.665Z,10.10
2023-02-07T22:11:49.399Z,9.90
2023-02-07T22:14:18.783Z,9.80
2023-02-07T22:16:51.189Z,9.60
2023-02-07T22:19:21.013Z,9.60
2023-02-07T22:21:51.629Z,9.50
2023-02-07T22:24:20.939Z,9.50
2023-02-07T22:26:49.442Z,9.60
2023-02-07T22:29:17.954Z,9.70
2023-02-07T22:31:46.415Z,9.80
2023-02-07T22:34:15.862Z,10.00
2023-02-07T22:36:46.188Z,10.20
2023-02-07T22:39:17.268Z,10.30
2023-02-07T22:41:45.928Z,10.60
2023-02-07T22:44:14.578Z,10.80
2023-02-07T22:46:44.179Z,10.80
2023-02-07T22:49:12.648Z,10.70
2023-02-07T22:51:41.037Z,10.60
2023-02-07T22:54:13.586Z,10.40
2023-02-07T22:56:41.998Z,10.60
2023-02-07T22:59:10.388Z,10.80
2023-02-07T23:01:41.311Z,10.60
2023-02-07T23:04:18.232Z,10.60
2023-02-07T23:06:47.807Z,10.90
2023-02-07T23:09:16.625Z,10.80
2023-02-07T23:11:45.184Z,10.60
2023-02-07T23:14:13.796Z,10.40
2023-02-07T23:16:42.222Z,10.60
2023-02-07T23:19:14.625Z,10.60
2023-02-07T23:21:43.508Z,10.80
2023-02-07T23:24:12.437Z,11.00
2023-02-07T23:26:41.109Z,11.20
2023-02-07T23:29:09.790Z,11.40
2023-02-07T23:31:38.439Z,11.30
2023-02-07T23:34:06.955Z,11.40
2023-02-07T23:36:35.370Z,11.50
2023-02-07T23:39:04.949Z,11.70
2023-02-07T23:41:33.791Z,11.60
2023-02-07T23:44:03.323Z,11.60
2023-02-07T23:46:33.282Z,11.70
2023-02-07T23:49:02.259Z,11.50
2023-02-07T23:51:30.661Z,11.40
2023-02-07T23:53:59.394Z,11.40
2023-02-07T23:56:28.004Z,11.40
2023-02-07T23:58:56.482Z,11.40
